Time;durP1;ratioP1;P1;durP2;ratioP2;P2;SDS_P1;SDS_P2;PMS_P1;PMS_P2;Temp;Humidity;BMP_temperature;BMP_pressure;BME280_temperature;BME280_humidity;BME280_pressure;Samples;Min_cycle;Max_cycle;Signal;HPM_P1;HPM_P2
2022/03/13 00:00:11;;;;;;;48.30;28.42;;;;;;;5.34;87.40;100762.69;4998527;28;20035;-84
2022/03/13 00:02:43;;;;;;;46.83;27.90;;;;;;;5.38;87.49;100765.13;5003749;28;20046;-84
2022/03/13 00:05:10;;;;;;;47.95;28.10;;;;;;;5.41;86.61;100762.34;5018779;28;20058;-82
2022/03/13 00:07:38;;;;;;;46.97;27.10;;;;;;;5.44;87.02;100767.41;5004479;28;20042;-83
2022/03/13 00:10:06;;;;;;;46.53;28.90;;;;;;;5.46;87.16;100768.19;4995385;28;20034;-82
2022/03/13 00:12:36;;;;;;;47.97;30.23;;;;;;;5.43;88.00;100763.09;4980676;28;20151;-82
2022/03/13 00:15:03;;;;;;;47.92;29.77;;;;;;;5.42;88.51;100769.28;4978258;28;20035;-82
2022/03/13 00:17:31;;;;;;;55.45;29.27;;;;;;;5.42;88.60;100764.06;4988708;28;20113;-85
2022/03/13 00:20:03;;;;;;;48.85;30.58;;;;;;;5.39;89.36;100764.19;4984751;28;20034;-84
2022/03/13 00:22:34;;;;;;;47.72;28.50;;;;;;;5.38;89.65;100762.50;4986406;28;20030;-84
2022/03/13 00:25:02;;;;;;;48.47;30.15;;;;;;;5.27;90.10;100761.31;4988475;28;20118;-84
2022/03/13 00:27:31;;;;;;;49.75;30.13;;;;;;;5.22;90.64;100758.09;4985249;28;20062;-83
2022/03/13 00:29:57;;;;;;;48.15;29.65;;;;;;;5.20;91.45;100759.91;4976309;28;20026;-83
2022/03/13 00:32:23;;;;;;;50.10;29.92;;;;;;;5.17;91.45;100760.09;4985728;28;20042;-82
2022/03/13 00:34:49;;;;;;;50.80;29.33;;;;;;;5.16;92.12;100763.63;4974984;28;20037;-84
2022/03/13 00:37:15;;;;;;;49.13;29.48;;;;;;;5.19;91.69;100755.59;5004769;28;20031;-84
2022/03/13 00:39:41;;;;;;;52.03;30.15;;;;;;;5.22;91.73;100755.47;5007725;28;20046;-82
2022/03/13 00:42:13;;;;;;;48.00;30.15;;;;;;;5.25;91.65;100749.22;5005497;28;20032;-86
2022/03/13 00:44:39;;;;;;;53.60;30.52;;;;;;;5.23;91.83;100759.78;5022613;28;20046;-83
2022/03/13 00:47:05;;;;;;;51.60;31.02;;;;;;;5.23;91.82;100754.53;5001720;28;20035;-84
2022/03/13 00:49:32;;;;;;;51.22;29.60;;;;;;;5.20;91.58;100757.31;4987367;28;20077;-84
2022/03/13 00:51:59;;;;;;;51.30;30.83;;;;;;;5.13;91.73;100753.31;5021364;28;20629;-84
2022/03/13 00:54:25;;;;;;;50.92;29.92;;;;;;;5.16;91.28;100752.31;4988787;28;20054;-83
2022/03/13 00:56:50;;;;;;;48.90;30.30;;;;;;;5.17;91.09;100748.78;4984624;28;20038;-84
2022/03/13 00:59:16;;;;;;;53.75;28.92;;;;;;;5.19;91.09;100741.69;4998355;28;20106;-83
2022/03/13 01:01:42;;;;;;;53.10;31.13;;;;;;;5.19;90.55;100742.53;5000845;28;20041;-84
2022/03/13 01:04:07;;;;;;;53.53;30.77;;;;;;;5.21;90.83;100738.06;5016655;28;20038;-83
2022/03/13 01:06:33;;;;;;;50.90;31.00;;;;;;;5.17;90.79;100741.78;5005133;28;20038;-81
2022/03/13 01:08:58;;;;;;;51.55;31.15;;;;;;;5.14;91.21;100736.69;5008316;28;20040;-83
2022/03/13 01:11:25;;;;;;;50.20;31.58;;;;;;;5.12;90.89;100735.94;5017168;28;20049;-84
2022/03/13 01:13:50;;;;;;;53.63;30.92;;;;;;;5.10;90.88;100732.56;5002276;28;20117;-83
2022/03/13 01:16:22;;;;;;;53.88;32.40;;;;;;;5.04;91.77;100735.47;5007122;28;20082;-84
2022/03/13 01:18:53;;;;;;;52.78;31.88;;;;;;;5.05;91.45;100739.78;5035621;28;20015;-84
2022/03/13 01:21:20;;;;;;;50.95;31.42;;;;;;;5.07;91.56;100732.69;5012877;28;20042;-83
2022/03/13 01:23:57;;;;;;;54.10;32.08;;;;;;;5.10;91.97;100724.69;5017521;28;20490;-85
2022/03/13 01:26:23;;;;;;;50.58;31.40;;;;;;;5.06;91.42;100725.78;4999549;28;20030;-84
2022/03/13 01:28:50;;;;;;;51.97;31.40;;;;;;;5.06;91.69;100720.56;4994413;28;20042;-84
2022/03/13 01:31:19;;;;;;;59.60;32.10;;;;;;;5.02;92.83;100728.63;4990298;28;20042;-85
2022/03/13 01:33:45;;;;;;;48.85;30.63;;;;;;;4.94;92.86;100718.59;4985131;28;20042;-86
2022/03/13 01:36:12;;;;;;;54.97;32.42;;;;;;;4.90;93.53;100724.88;4983716;28;20035;-84
2022/03/13 01:38:39;;;;;;;51.67;32.22;;;;;;;4.91;93.52;100722.19;4986662;28;20069;-84
2022/03/13 01:41:05;;;;;;;52.20;31.52;;;;;;;4.93;93.51;100729.97;4983365;28;20118;-83
2022/03/13 01:43:31;;;;;;;51.33;30.95;;;;;;;4.99;93.08;100713.94;4985693;28;20035;-83
2022/03/13 01:45:58;;;;;;;53.33;31.05;;;;;;;4.99;93.31;100716.56;4988554;28;20053;-84
2022/03/13 01:48:26;;;;;;;50.95;31.48;;;;;;;4.97;93.11;100710.56;4985173;28;20030;-84
2022/03/13 01:50:52;;;;;;;53.83;32.95;;;;;;;4.96;93.41;100708.88;4981372;28;20101;-86
2022/03/13 01:53:20;;;;;;;52.20;31.83;;;;;;;4.89;93.21;100702.25;4996985;28;20042;-85
2022/03/13 01:55:46;;;;;;;49.90;30.77;;;;;;;4.88;93.43;100700.59;4988675;28;20080;-84
2022/03/13 01:58:12;;;;;;;56.10;33.78;;;;;;;4.91;93.27;100705.66;4980697;28;20043;-85
2022/03/13 02:00:38;;;;;;;58.92;32.63;;;;;;;4.95;93.46;100699.31;4983557;28;20056;-85
2022/03/13 02:03:04;;;;;;;52.20;31.65;;;;;;;4.96;93.22;100693.16;4980596;28;20105;-84
2022/03/13 02:05:32;;;;;;;53.28;32.55;;;;;;;4.98;93.26;100691.31;4988568;28;20430;-85
2022/03/13 02:07:59;;;;;;;52.22;32.40;;;;;;;4.99;93.42;100685.19;4983062;28;20510;-84
2022/03/13 02:10:30;;;;;;;56.53;32.92;;;;;;;4.97;93.65;100689.63;4985103;28;20530;-84
2022/03/13 02:12:56;;;;;;;58.15;34.45;;;;;;;4.97;93.28;100684.41;4981195;28;20138;-84
2022/03/13 02:15:28;;;;;;;55.22;33.10;;;;;;;4.83;94.33;100681.66;4985187;28;20043;-83
2022/03/13 02:17:54;;;;;;;54.17;33.30;;;;;;;4.66;95.69;100684.28;4983034;28;20026;-84
2022/03/13 02:20:26;;;;;;;55.35;32.45;;;;;;;4.58;96.03;100683.84;4982128;28;20118;-86
2022/03/13 02:22:58;;;;;;;52.55;33.28;;;;;;;4.53;96.56;100678.84;4981390;28;20118;-84
2022/03/13 02:25:24;;;;;;;57.20;33.88;;;;;;;4.48;97.21;100676.44;4999367;28;20080;-84
2022/03/13 02:27:50;;;;;;;59.25;34.67;;;;;;;4.48;96.75;100680.81;4998023;28;20022;-84
2022/03/13 02:30:15;;;;;;;59.25;33.70;;;;;;;4.43;97.38;100668.00;4985437;28;20069;-84
2022/03/13 02:32:41;;;;;;;56.13;34.70;;;;;;;4.41;97.67;100675.09;4982086;28;20094;-84
2022/03/13 02:35:07;;;;;;;58.22;34.13;;;;;;;4.39;97.52;100671.69;4984869;28;20132;-84
2022/03/13 02:37:39;;;;;;;54.00;33.95;;;;;;;4.36;97.87;100671.81;4981391;28;20450;-84
2022/03/13 02:40:06;;;;;;;58.45;34.20;;;;;;;4.34;97.73;100673.69;4999242;28;20042;-84
2022/03/13 02:42:32;;;;;;;56.42;32.72;;;;;;;4.34;98.28;100671.06;4980972;28;20068;-84
2022/03/13 02:44:57;;;;;;;59.00;34.20;;;;;;;4.36;97.99;100674.44;4982798;28;20038;-83
2022/03/13 02:47:23;;;;;;;58.63;33.85;;;;;;;4.37;98.49;100668.28;4980906;28;20061;-84
2022/03/13 02:49:48;;;;;;;56.58;33.22;;;;;;;4.37;98.58;100670.91;4982737;28;20062;-83
2022/03/13 02:52:14;;;;;;;55.13;34.00;;;;;;;4.38;98.01;100669.16;4983405;28;20042;-82
2022/03/13 02:54:40;;;;;;;54.75;33.75;;;;;;;4.38;97.87;100664.78;4985106;28;20034;-83
2022/03/13 02:57:05;;;;;;;53.15;32.10;;;;;;;4.39;98.01;100674.31;4986088;28;20101;-84
2022/03/13 02:59:31;;;;;;;62.10;34.83;;;;;;;4.37;98.07;100665.69;4995699;28;20522;-83
2022/03/13 03:01:57;;;;;;;53.33;32.58;;;;;;;4.35;98.38;100661.47;4985485;28;20065;-84
2022/03/13 03:04:24;;;;;;;55.42;33.42;;;;;;;4.30;98.17;100659.06;4982985;28;20031;-84
2022/03/13 03:07:01;;;;;;;59.95;33.58;;;;;;;4.25;98.60;100663.69;4981712;28;20368;-84
2022/03/13 03:09:32;;;;;;;60.65;33.22;;;;;;;4.20;98.65;100655.22;4982361;28;21302;-84
2022/03/13 03:11:59;;;;;;;57.33;34.03;;;;;;;4.19;98.79;100655.28;4979178;28;20073;-85
2022/03/13 03:14:24;;;;;;;55.97;33.72;;;;;;;4.19;98.76;100656.13;4996754;28;20055;-84
2022/03/13 03:16:53;;;;;;;56.58;32.50;;;;;;;4.17;98.74;100650.16;4983028;28;20034;-84
2022/03/13 03:19:18;;;;;;;53.97;33.05;;;;;;;4.16;98.97;100653.69;4982090;28;20092;-85
2022/03/13 03:21:44;;;;;;;60.38;34.72;;;;;;;4.15;98.70;100646.78;4982217;28;20035;-84
2022/03/13 03:24:15;;;;;;;56.83;32.85;;;;;;;4.13;98.56;100648.59;4984942;28;20038;-85
2022/03/13 03:26:41;;;;;;;55.80;33.75;;;;;;;4.07;98.95;100651.53;4984042;28;20426;-84
2022/03/13 03:29:06;;;;;;;59.35;35.10;;;;;;;4.03;99.14;100657.81;4982199;28;20169;-84
2022/03/13 03:31:31;;;;;;;57.50;33.47;;;;;;;3.98;99.26;100644.16;4997082;28;20038;-84
2022/03/13 03:33:57;;;;;;;56.03;34.03;;;;;;;3.95;99.13;100649.50;4991473;28;20089;-84
2022/03/13 03:36:24;;;;;;;61.10;35.10;;;;;;;3.93;99.20;100651.38;4986543;28;20027;-84
2022/03/13 03:38:49;;;;;;;66.38;35.60;;;;;;;3.92;99.39;100647.06;4985490;28;20101;-85
2022/03/13 03:41:15;;;;;;;56.67;35.20;;;;;;;3.86;99.73;100639.50;4981220;28;20142;-84
2022/03/13 03:43:40;;;;;;;62.85;35.60;;;;;;;3.80;100.00;100655.47;4984247;28;20031;-84
2022/03/13 03:46:06;;;;;;;57.50;34.90;;;;;;;3.76;100.00;100648.72;4980181;28;20137;-85
2022/03/13 03:48:32;;;;;;;54.60;34.25;;;;;;;3.74;100.00;100640.09;4984524;28;20033;-85
2022/03/13 03:50:58;;;;;;;66.57;37.65;;;;;;;3.72;100.00;100648.84;4996798;28;20090;-84
2022/03/13 03:53:23;;;;;;;60.58;34.40;;;;;;;3.70;100.00;100650.72;4982945;28;20467;-84
2022/03/13 03:55:49;;;;;;;59.28;34.28;;;;;;;3.67;100.00;100648.22;4985255;28;20121;-84
2022/03/13 03:58:15;;;;;;;58.40;33.50;;;;;;;3.58;100.00;100650.44;4986134;28;20034;-84
2022/03/13 04:00:40;;;;;;;56.55;34.17;;;;;;;3.52;100.00;100654.19;4987900;28;20109;-84
2022/03/13 04:03:06;;;;;;;63.95;35.60;;;;;;;3.44;100.00;100652.81;4984541;28;20046;-84
2022/03/13 04:05:32;;;;;;;60.22;34.80;;;;;;;3.39;100.00;100649.59;5018517;28;20046;-84
2022/03/13 04:07:57;;;;;;;58.20;33.83;;;;;;;3.35;100.00;100659.34;4995578;28;20294;-83
2022/03/13 04:10:23;;;;;;;63.60;36.75;;;;;;;3.31;100.00;100652.53;4999533;28;20466;-83
2022/03/13 04:12:49;;;;;;;58.63;36.25;;;;;;;3.23;100.00;100654.66;5003980;28;20129;-84
2022/03/13 04:15:15;;;;;;;61.42;34.50;;;;;;;3.20;100.00;100649.59;4982615;28;20023;-83
2022/03/13 04:17:43;;;;;;;60.95;35.80;;;;;;;3.12;100.00;100657.75;5014746;28;20240;-83
2022/03/13 04:20:10;;;;;;;57.17;34.38;;;;;;;3.08;100.00;100661.41;5008630;28;20073;-85
2022/03/13 04:22:35;;;;;;;61.22;34.63;;;;;;;3.02;100.00;100653.00;4991610;28;20042;-84
2022/03/13 04:25:01;;;;;;;62.00;35.65;;;;;;;3.03;100.00;100652.09;5002432;28;20176;-83
2022/03/13 04:27:28;;;;;;;63.63;37.10;;;;;;;3.03;100.00;100652.94;4995434;28;20030;-83
2022/03/13 04:29:53;;;;;;;56.67;32.85;;;;;;;3.03;100.00;100652.09;4988790;28;20066;-84
2022/03/13 04:32:22;;;;;;;60.15;35.30;;;;;;;3.05;100.00;100660.72;4969709;28;20497;-83
2022/03/13 04:34:48;;;;;;;59.58;34.17;;;;;;;3.06;100.00;100657.19;4987635;28;20042;-84
2022/03/13 04:37:14;;;;;;;59.28;34.60;;;;;;;3.00;100.00;100655.72;5002350;28;20072;-84
2022/03/13 04:39:40;;;;;;;57.22;34.40;;;;;;;2.94;100.00;100668.16;4999507;28;20047;-84
2022/03/13 04:42:09;;;;;;;58.08;33.63;;;;;;;2.92;100.00;100659.56;4987364;28;20087;-84
2022/03/13 04:44:35;;;;;;;54.13;32.97;;;;;;;2.88;100.00;100666.69;4983803;28;20467;-83
2022/03/13 04:47:01;;;;;;;58.50;34.20;;;;;;;2.87;100.00;100665.84;4984337;28;20035;-83
2022/03/13 04:49:27;;;;;;;56.55;33.35;;;;;;;2.86;100.00;100669.34;4986218;28;20030;-83
2022/03/13 04:51:53;;;;;;;57.50;34.13;;;;;;;2.85;100.00;100666.81;4985399;28;20092;-84
2022/03/13 04:54:20;;;;;;;59.83;33.42;;;;;;;2.81;100.00;100668.72;4985767;28;20039;-82
2022/03/13 04:56:46;;;;;;;56.28;34.78;;;;;;;2.78;100.00;100668.81;4985995;28;20034;-83
2022/03/13 04:59:12;;;;;;;56.63;34.17;;;;;;;2.79;100.00;100673.13;4984636;28;20034;-84
2022/03/13 05:01:37;;;;;;;60.17;34.05;;;;;;;2.76;100.00;100673.28;5006655;28;20038;-84
2022/03/13 05:04:03;;;;;;;63.45;35.03;;;;;;;2.74;100.00;100669.88;5022313;28;20069;-83
2022/03/13 05:06:29;;;;;;;57.03;33.78;;;;;;;2.71;100.00;100666.56;5003962;28;20064;-84
2022/03/13 05:08:54;;;;;;;59.50;33.78;;;;;;;2.67;100.00;100676.25;5006331;28;20022;-82
2022/03/13 05:11:20;;;;;;;60.72;34.60;;;;;;;2.67;100.00;100676.25;5011214;28;20065;-84
2022/03/13 05:13:45;;;;;;;60.17;34.90;;;;;;;2.67;100.00;100676.25;5001136;28;20061;-84
2022/03/13 05:16:11;;;;;;;67.05;34.75;;;;;;;2.64;100.00;100681.63;4991333;28;20030;-84
2022/03/13 05:18:37;;;;;;;58.97;33.47;;;;;;;2.65;100.00;100682.47;4984198;28;20148;-84
2022/03/13 05:21:02;;;;;;;64.20;34.88;;;;;;;2.65;100.00;100680.69;4983642;28;20035;-83
2022/03/13 05:23:28;;;;;;;60.58;34.90;;;;;;;2.63;100.00;100679.91;4982393;28;20876;-83
2022/03/13 05:25:53;;;;;;;62.22;34.30;;;;;;;2.59;100.00;100680.13;5003130;28;20047;-83
2022/03/13 05:28:19;;;;;;;64.20;34.65;;;;;;;2.53;100.00;100691.66;4999968;28;20116;-83
2022/03/13 05:30:46;;;;;;;62.72;35.15;;;;;;;2.48;100.00;100690.97;4986670;28;20041;-82
2022/03/13 05:33:12;;;;;;;58.90;33.65;;;;;;;2.43;100.00;100690.31;4986446;28;20114;-84
2022/03/13 05:35:37;;;;;;;61.20;34.47;;;;;;;2.39;100.00;100687.00;4986395;28;20212;-83
2022/03/13 05:38:03;;;;;;;61.75;36.33;;;;;;;2.38;100.00;100684.47;4987045;28;20054;-82
2022/03/13 05:40:29;;;;;;;66.00;36.63;;;;;;;2.35;100.00;100684.59;4998987;28;20027;-83
2022/03/13 05:42:59;;;;;;;66.25;38.22;;;;;;;2.33;100.00;100691.63;4985824;28;20435;-84
2022/03/13 05:45:28;;;;;;;62.95;35.88;;;;;;;2.34;100.00;100695.94;5000541;28;20371;-83
2022/03/13 05:48:01;;;;;;;68.38;38.33;;;;;;;2.35;100.00;100703.69;4999048;28;20446;-84
2022/03/13 05:50:28;;;;;;;68.90;35.70;;;;;;;2.34;100.00;100703.75;4996589;28;20141;-83
2022/03/13 05:52:56;;;;;;;64.43;37.75;;;;;;;2.33;100.00;100702.03;4984571;28;20026;-82
2022/03/13 05:55:25;;;;;;;63.50;35.40;;;;;;;2.31;100.00;100703.84;4995334;28;20057;-83
2022/03/13 05:57:55;;;;;;;65.88;36.08;;;;;;;2.32;100.00;100705.56;4995871;28;20033;-83
2022/03/13 06:00:25;;;;;;;67.57;37.15;;;;;;;2.31;100.00;100714.28;4992921;28;20043;-84
2022/03/13 06:02:51;;;;;;;62.85;35.38;;;;;;;2.29;100.00;100705.69;5001154;28;20089;-83
2022/03/13 06:05:18;;;;;;;60.30;35.58;;;;;;;2.30;100.00;100707.34;5001761;28;20454;-83
2022/03/13 06:07:45;;;;;;;61.70;37.05;;;;;;;2.32;100.00;100705.56;4984400;28;20494;-84
2022/03/13 06:10:13;;;;;;;61.65;36.13;;;;;;;2.37;100.00;100714.03;4980129;28;20491;-83
2022/03/13 06:12:40;;;;;;;59.33;34.05;;;;;;;2.42;100.00;100714.66;4986060;28;20042;-84
2022/03/13 06:15:07;;;;;;;62.17;34.17;;;;;;;2.49;100.00;100718.72;4983449;28;20505;-83
2022/03/13 06:17:39;;;;;;;56.38;34.58;;;;;;;2.57;100.00;100716.66;4983174;28;20117;-84
2022/03/13 06:20:07;;;;;;;64.07;34.70;;;;;;;2.65;100.00;100724.97;4981154;28;20504;-84
2022/03/13 06:22:33;;;;;;;60.70;34.63;;;;;;;2.72;100.00;100716.00;4982569;28;20038;-84
2022/03/13 06:24:58;;;;;;;66.70;34.17;;;;;;;2.76;100.00;100716.75;4985789;28;20030;-84
2022/03/13 06:27:24;;;;;;;62.42;35.50;;;;;;;2.81;100.00;100723.44;4981725;28;20443;-85
2022/03/13 06:29:49;;;;;;;65.68;35.95;;;;;;;2.87;100.00;100725.78;4999484;28;20128;-83
2022/03/13 06:32:15;;;;;;;62.08;34.38;;;;;;;2.92;100.00;100737.78;4983768;28;20039;-85
2022/03/13 06:34:41;;;;;;;56.92;34.35;;;;;;;2.92;100.00;100730.81;5000834;28;20031;-83
2022/03/13 06:37:08;;;;;;;60.83;36.38;;;;;;;2.93;100.00;100734.25;4986035;28;20046;-83
2022/03/13 06:39:34;;;;;;;62.00;35.30;;;;;;;2.89;100.00;100736.97;4984703;28;20506;-84
2022/03/13 06:41:59;;;;;;;63.65;37.05;;;;;;;2.88;100.00;100737.91;4983384;28;20031;-84
2022/03/13 06:44:25;;;;;;;55.95;33.95;;;;;;;2.92;100.00;100732.56;4985565;28;20400;-83
2022/03/13 06:46:50;;;;;;;56.88;35.35;;;;;;;2.92;100.00;100724.75;4986450;28;20122;-83
2022/03/13 06:49:17;;;;;;;62.50;35.63;;;;;;;2.91;100.00;100736.06;4986051;28;20027;-84
2022/03/13 06:51:42;;;;;;;58.63;35.83;;;;;;;2.91;100.00;100733.47;5017529;28;20038;-85
2022/03/13 06:54:09;;;;;;;61.78;35.47;;;;;;;2.97;100.00;100741.03;4985845;28;20118;-85
2022/03/13 06:56:35;;;;;;;58.75;36.03;;;;;;;3.04;100.00;100748.53;4982113;28;20066;-85
2022/03/13 06:59:03;;;;;;;59.60;36.22;;;;;;;3.15;100.00;100745.44;4982543;28;20038;-85
2022/03/13 07:01:30;;;;;;;61.50;38.13;;;;;;;3.24;100.00;100753.69;4986633;28;20049;-86
2022/03/13 07:03:56;;;;;;;62.83;38.00;;;;;;;3.31;100.00;100751.69;5001341;28;20124;-85
2022/03/13 07:06:22;;;;;;;64.82;37.90;;;;;;;3.38;100.00;100758.31;4983849;28;20113;-86
2022/03/13 07:08:47;;;;;;;62.58;37.53;;;;;;;3.39;100.00;100760.03;4984470;28;20065;-86
2022/03/13 07:11:15;;;;;;;63.65;37.30;;;;;;;3.42;100.00;100765.09;4995503;28;20038;-83
2022/03/13 07:13:42;;;;;;;66.72;39.80;;;;;;;3.48;100.00;100757.00;5000232;28;20394;-86
2022/03/13 07:16:08;;;;;;;66.20;37.72;;;;;;;3.54;100.00;100759.31;4982708;28;20054;-85
2022/03/13 07:18:35;;;;;;;66.93;38.00;;;;;;;3.59;100.00;100762.56;4984592;28;20137;-84
2022/03/13 07:21:00;;;;;;;65.97;35.80;;;;;;;3.63;100.00;100761.53;4982903;28;20185;-85
2022/03/13 07:23:26;;;;;;;62.50;37.83;;;;;;;3.68;100.00;100767.38;4984553;28;20031;-84
2022/03/13 07:25:51;;;;;;;61.33;36.58;;;;;;;3.75;100.00;100767.09;4983936;28;20038;-82
2022/03/13 07:28:19;;;;;;;59.80;34.45;;;;;;;3.77;100.00;100773.13;4983788;28;20047;-83
2022/03/13 07:30:45;;;;;;;59.13;35.22;;;;;;;3.81;100.00;100767.69;4983746;28;20037;-81
2022/03/13 07:33:12;;;;;;;69.05;36.45;;;;;;;3.87;100.00;100771.78;4987405;28;20347;-80
2022/03/13 07:35:42;;;;;;;71.00;38.63;;;;;;;3.92;100.00;100759.34;4985578;28;20045;-79
2022/03/13 07:38:08;;;;;;;67.10;37.58;;;;;;;4.00;100.00;100762.47;4987096;28;20051;-79
2022/03/13 07:40:35;;;;;;;62.50;35.65;;;;;;;4.05;100.00;100760.47;4990090;28;20446;-82
2022/03/13 07:43:03;;;;;;;63.90;36.85;;;;;;;4.13;99.96;100758.31;4988186;28;20417;-80
2022/03/13 07:45:29;;;;;;;60.80;34.28;;;;;;;4.23;98.84;100753.53;4990265;28;20084;-81
2022/03/13 07:47:59;;;;;;;60.88;34.38;;;;;;;4.28;97.91;100762.84;4993866;28;20061;-81
2022/03/13 07:50:26;;;;;;;56.97;34.58;;;;;;;4.33;97.36;100766.06;4985430;28;20027;-80
2022/03/13 07:52:54;;;;;;;54.22;33.03;;;;;;;4.40;97.02;100770.09;4997190;28;20038;-80
2022/03/13 07:55:21;;;;;;;57.10;33.88;;;;;;;4.50;96.02;100762.63;4992212;28;20037;-81
2022/03/13 07:57:48;;;;;;;54.42;33.00;;;;;;;4.56;95.37;100762.31;4995157;28;20038;-79
2022/03/13 08:00:17;;;;;;;54.72;31.80;;;;;;;4.64;93.42;100760.19;4309183;28;10000711;-81
2022/03/13 08:02:46;;;;;;;55.20;32.92;;;;;;;4.73;92.79;100764.09;5017508;28;20048;-80
2022/03/13 08:05:16;;;;;;;55.42;30.50;;;;;;;4.81;91.85;100761.97;5010817;28;20046;-84
2022/03/13 08:07:43;;;;;;;53.70;33.38;;;;;;;4.88;91.61;100779.91;5008096;28;20034;-79
2022/03/13 08:10:10;;;;;;;52.40;31.88;;;;;;;4.95;90.16;100785.63;4995674;28;20050;-83
2022/03/13 08:12:40;;;;;;;53.72;31.58;;;;;;;5.00;89.61;100786.28;4999960;28;20558;-81
2022/03/13 08:15:07;;;;;;;54.15;34.53;;;;;;;4.92;92.36;100791.03;4324270;28;10000423;-83
2022/03/13 08:17:34;;;;;;;58.88;35.42;;;;;;;4.88;93.35;100784.28;5003603;28;20030;-80
2022/03/13 08:20:05;;;;;;;58.22;35.33;;;;;;;4.85;93.54;100784.41;5016488;28;20101;-79
2022/03/13 08:22:31;;;;;;;57.83;36.00;;;;;;;4.82;93.91;100789.81;5005443;28;20157;-77
2022/03/13 08:24:57;;;;;;;60.72;35.55;;;;;;;4.80;95.21;100791.66;4986822;28;20031;-78
2022/03/13 08:27:22;;;;;;;56.58;35.40;;;;;;;4.97;94.33;100783.81;4986811;28;20053;-79
2022/03/13 08:29:48;;;;;;;59.92;35.88;;;;;;;5.08;93.32;100778.88;4987633;28;20046;-78
2022/03/13 08:32:15;;;;;;;56.45;34.83;;;;;;;5.15;92.77;100782.03;4984813;28;20044;-80
2022/03/13 08:34:42;;;;;;;58.05;34.95;;;;;;;5.28;91.89;100783.94;4985468;28;20031;-79
2022/03/13 08:37:08;;;;;;;55.00;34.38;;;;;;;5.36;91.52;100773.03;4988995;28;20034;-79
2022/03/13 08:39:35;;;;;;;63.25;35.65;;;;;;;5.46;90.98;100776.03;4987014;28;20395;-80
2022/03/13 08:42:02;;;;;;;56.88;33.78;;;;;;;5.53;90.62;100774.81;5007230;28;20035;-80
2022/03/13 08:44:27;;;;;;;53.50;32.45;;;;;;;5.54;89.58;100779.09;5008394;28;20034;-78
2022/03/13 08:46:52;;;;;;;59.35;35.08;;;;;;;5.60;89.44;100778.75;4999388;28;20097;-80
2022/03/13 08:49:18;;;;;;;58.08;35.15;;;;;;;5.70;88.98;100774.75;5022089;28;20038;-81
2022/03/13 08:51:44;;;;;;;56.25;34.65;;;;;;;5.89;88.94;100774.63;4998331;28;20045;-82
2022/03/13 08:54:09;;;;;;;52.95;34.80;;;;;;;5.99;88.49;100767.97;4993434;28;20429;-79
2022/03/13 08:56:35;;;;;;;55.35;33.20;;;;;;;6.12;87.07;100766.34;4988031;28;20036;-78
2022/03/13 08:59:02;;;;;;;51.95;32.35;;;;;;;6.24;86.38;100775.31;4987235;28;20038;-78
2022/03/13 09:01:27;;;;;;;53.67;33.15;;;;;;;6.36;84.97;100770.19;4987527;28;20038;-79
2022/03/13 09:03:54;;;;;;;41.28;27.15;;;;;;;6.45;83.25;100767.06;4984445;28;20038;-80
2022/03/13 09:06:21;;;;;;;43.30;27.08;;;;;;;6.51;81.53;100771.13;4984751;28;20495;-78
2022/03/13 09:08:46;;;;;;;49.30;28.23;;;;;;;6.58;79.64;100769.84;5000615;28;20030;-74
2022/03/13 09:11:13;;;;;;;40.97;26.05;;;;;;;6.68;78.83;100773.63;4982822;28;20399;-73
2022/03/13 09:13:39;;;;;;;42.83;26.27;;;;;;;6.74;77.58;100768.03;4985332;28;20117;-74
2022/03/13 09:16:06;;;;;;;40.35;25.45;;;;;;;6.75;75.88;100766.25;4982918;28;20030;-75
2022/03/13 09:18:31;;;;;;;37.50;24.48;;;;;;;6.79;75.79;100770.38;4982071;28;20499;-74
2022/03/13 09:20:58;;;;;;;38.78;24.27;;;;;;;6.87;75.52;100762.91;4982635;28;20401;-74
2022/03/13 09:23:24;;;;;;;41.85;25.80;;;;;;;6.93;74.45;100763.41;4986724;28;20045;-75
2022/03/13 09:25:50;;;;;;;38.08;23.38;;;;;;;7.07;73.80;100761.75;4983631;28;20030;-74
2022/03/13 09:28:16;;;;;;;40.55;25.45;;;;;;;7.19;73.17;100766.22;4984907;28;20039;-76
2022/03/13 09:30:41;;;;;;;42.00;23.83;;;;;;;7.16;72.05;100761.19;4982255;28;20503;-74
2022/03/13 09:33:07;;;;;;;33.25;21.08;;;;;;;7.17;69.28;100762.88;4983291;28;20045;-75
2022/03/13 09:35:32;;;;;;;30.73;21.73;;;;;;;7.25;69.68;100758.00;4984294;28;20438;-76
2022/03/13 09:37:58;;;;;;;31.83;20.67;;;;;;;7.39;68.36;100758.00;4982322;28;20039;-74
2022/03/13 09:40:26;;;;;;;29.77;19.67;;;;;;;7.47;67.22;100761.03;4983283;28;20446;-74
2022/03/13 09:42:52;;;;;;;31.75;19.58;;;;;;;7.49;66.62;100764.38;4983130;28;20026;-76
2022/03/13 09:45:17;;;;;;;23.50;16.27;;;;;;;7.47;62.83;100770.69;4982010;28;20049;-76
2022/03/13 09:47:43;;;;;;;20.65;14.95;;;;;;;7.49;60.96;100763.53;4982037;28;20129;-75
2022/03/13 09:50:12;;;;;;;22.25;14.15;;;;;;;7.61;59.95;100763.63;4983096;28;20054;-76
2022/03/13 09:52:40;;;;;;;20.10;15.10;;;;;;;7.80;58.74;100764.19;4983051;28;20042;-76
2022/03/13 09:55:10;;;;;;;32.20;21.00;;;;;;;8.02;60.33;100760.19;4981650;28;20092;-75
2022/03/13 09:57:39;;;;;;;29.95;21.33;;;;;;;8.19;61.05;100762.59;4981483;28;20039;-75
2022/03/13 10:00:17;;;;;;;24.08;15.80;;;;;;;8.30;55.58;100752.28;4993516;28;20077;-75
2022/03/13 10:02:44;;;;;;;20.02;13.93;;;;;;;8.30;52.52;100754.91;4984430;28;20145;-74
2022/03/13 10:05:10;;;;;;;17.77;13.82;;;;;;;8.21;49.90;100758.09;4994218;28;20026;-74
2022/03/13 10:07:54;;;;;;;16.20;13.32;;;;;;;8.09;47.55;100758.88;4989203;28;20360;-75
2022/03/13 10:10:25;;;;;;;17.67;13.10;;;;;;;8.07;47.50;100755.53;4984073;28;20037;-74
2022/03/13 10:12:53;;;;;;;16.75;12.20;;;;;;;8.16;45.65;100760.19;4979870;28;20163;-75
2022/03/13 10:15:18;;;;;;;17.33;11.88;;;;;;;8.24;45.04;100752.66;4984322;28;20214;-75
2022/03/13 10:17:45;;;;;;;18.08;12.75;;;;;;;8.31;44.76;100759.22;4979805;28;20099;-75
2022/03/13 10:20:24;;;;;;;19.55;14.70;;;;;;;8.38;45.47;100755.25;4981341;28;20037;-73
2022/03/13 10:23:10;;;;;;;22.08;16.42;;;;;;;8.43;47.53;100753.16;4983696;28;20041;-76
2022/03/13 10:25:38;;;;;;;24.17;16.33;;;;;;;8.50;47.59;100746.56;4980449;28;20038;-76
2022/03/13 10:28:18;;;;;;;19.98;15.35;;;;;;;8.48;46.37;100748.44;4984957;28;20034;-76
2022/03/13 10:30:45;;;;;;;;;;;;;;;8.50;45.97;100751.81;4983418;28;20041;-77
2022/03/13 10:33:12;;;;;;;18.38;13.77;;;;;;;8.59;44.42;100737.22;4980965;28;19918;-74
2022/03/13 10:35:39;;;;;;;18.70;14.18;;;;;;;8.68;44.93;100739.25;4983879;28;20034;-76
2022/03/13 10:38:14;;;;;;;20.50;15.20;;;;;;;8.76;44.03;100733.47;4982643;28;20031;-74
2022/03/13 10:40:46;;;;;;;20.33;14.50;;;;;;;8.77;42.63;100735.16;4981743;28;20041;-75
2022/03/13 10:43:18;;;;;;;16.35;12.07;;;;;;;8.83;42.16;100727.69;4980728;28;20463;-75
2022/03/13 10:45:51;;;;;;;17.55;13.30;;;;;;;8.89;41.46;100729.06;4980666;28;20027;-73
2022/03/13 10:48:28;;;;;;;17.52;13.30;;;;;;;8.94;40.40;100727.81;4982319;28;20435;-75
2022/03/13 10:50:56;;;;;;;19.05;13.32;;;;;;;8.97;40.91;100732.84;4979438;28;20487;-75
2022/03/13 10:53:22;;;;;;;23.95;14.85;;;;;;;9.09;41.84;100725.91;4984286;28;20038;-75
2022/03/13 10:56:02;;;;;;;20.38;14.68;;;;;;;9.23;42.58;100717.94;4981783;28;20391;-75
2022/03/13 10:58:30;;;;;;;20.10;14.52;;;;;;;9.33;41.91;100724.22;4983632;28;20023;-76
2022/03/13 11:01:04;;;;;;;20.77;14.93;;;;;;;9.43;40.98;100717.38;4980300;28;20078;-75
2022/03/13 11:03:31;;;;;;;23.63;15.20;;;;;;;9.50;40.87;100709.03;4978722;28;20042;-74
2022/03/13 11:05:59;;;;;;;19.02;14.20;;;;;;;9.60;40.94;100702.19;4981362;28;20031;-76
2022/03/13 11:08:26;;;;;;;21.60;14.63;;;;;;;9.63;39.38;100704.59;4983367;28;20050;-73
2022/03/13 11:10:53;;;;;;;22.88;14.40;;;;;;;9.72;38.94;100703.94;4981552;28;20458;-75
2022/03/13 11:13:21;;;;;;;23.02;14.95;;;;;;;9.82;39.19;100704.97;4982669;28;20050;-74